Time;durP1;ratioP1;P1;durP2;ratioP2;P2;SDS_P1;SDS_P2;PMS_P1;PMS_P2;Temp;Humidity;BMP_temperature;BMP_pressure;BME280_temperature;BME280_humidity;BME280_pressure;Samples;Min_cycle;Max_cycle;Signal;HPM_P1;HPM_P2
2022/01/31 00:02:04;;;;;;;20.95;8.55;;;;;;;3.00;80.39;101457.28;5032389;28;20057;-84
2022/01/31 00:04:30;;;;;;;20.73;7.82;;;;;;;3.02;80.35;101456.44;5030666;28;20026;-84
2022/01/31 00:06:56;;;;;;;24.52;8.57;;;;;;;3.02;80.33;101438.88;5029139;28;20063;-84
2022/01/31 00:09:23;;;;;;;24.60;7.68;;;;;;;2.98;80.64;101403.84;5031530;28;20029;-84
2022/01/31 00:11:57;;;;;;;17.92;8.18;;;;;;;2.99;80.47;101386.31;5031617;28;20034;-84
2022/01/31 00:14:41;;;;;;;22.30;7.43;;;;;;;2.99;80.64;101363.50;5031723;28;20377;-84
2022/01/31 00:17:08;;;;;;;20.60;8.55;;;;;;;3.00;80.87;101341.59;5028263;28;20465;-84
2022/01/31 00:19:36;;;;;;;22.75;8.00;;;;;;;3.02;80.48;101341.59;5030627;28;20084;-83
2022/01/31 00:22:01;;;;;;;19.58;8.00;;;;;;;3.06;80.60;101329.28;5031500;28;20021;-84
2022/01/31 00:24:27;;;;;;;25.77;7.85;;;;;;;3.10;80.61;101323.94;5031059;28;20033;-83
2022/01/31 00:26:52;;;;;;;17.90;7.70;;;;;;;3.07;80.84;101318.72;5028457;28;20068;-84
2022/01/31 00:29:17;;;;;;;22.55;7.85;;;;;;;3.08;81.19;101304.69;5031706;28;20025;-83
2022/01/31 00:31:43;;;;;;;21.88;8.15;;;;;;;3.11;80.82;101295.88;5031327;28;20324;-83
2022/01/31 00:34:09;;;;;;;16.60;7.78;;;;;;;3.10;80.90;101297.66;5031237;28;20096;-83
2022/01/31 00:36:34;;;;;;;18.00;8.27;;;;;;;3.16;81.42;101280.91;5029142;28;20029;-84
2022/01/31 00:39:00;;;;;;;19.55;9.10;;;;;;;3.11;81.97;101280.09;5012981;28;20018;-83
2022/01/31 00:41:25;;;;;;;20.23;7.25;;;;;;;3.09;82.18;101263.47;5031076;28;20033;-84
2022/01/31 00:44:16;;;;;;;22.25;8.50;;;;;;;3.03;82.23;101255.66;5031581;28;20071;-84
2022/01/31 00:46:47;;;;;;;19.25;8.57;;;;;;;2.98;83.80;101243.44;5027387;28;20389;-84
2022/01/31 00:49:23;;;;;;;21.33;8.15;;;;;;;2.95;84.04;101211.06;5030833;28;20022;-84
2022/01/31 00:51:48;;;;;;;23.60;8.48;;;;;;;2.97;84.44;101202.28;5030994;28;20109;-84
2022/01/31 00:54:13;;;;;;;17.80;7.57;;;;;;;2.87;85.56;101205.91;5029809;28;20148;-83
2022/01/31 00:56:39;;;;;;;24.67;8.63;;;;;;;2.87;86.93;101198.00;5027935;28;20025;-83
2022/01/31 00:59:04;;;;;;;19.20;7.93;;;;;;;2.74;88.16;101188.56;5030110;28;21472;-84
2022/01/31 01:01:29;;;;;;;25.92;8.40;;;;;;;2.60;89.59;101157.22;5030568;28;20049;-84
2022/01/31 01:03:55;;;;;;;21.20;8.48;;;;;;;2.48;90.42;101152.09;5030914;28;20033;-84
2022/01/31 01:06:21;;;;;;;19.95;8.45;;;;;;;2.47;91.04;101150.38;5027710;28;20030;-84
2022/01/31 01:08:46;;;;;;;21.95;8.70;;;;;;;2.40;91.84;101143.44;5030455;28;20685;-84
2022/01/31 01:11:11;;;;;;;28.00;8.65;;;;;;;2.41;92.40;101135.53;5030468;28;20030;-85
2022/01/31 01:13:37;;;;;;;17.55;7.43;;;;;;;2.41;92.91;101135.53;5012753;28;20450;-84
2022/01/31 01:16:02;;;;;;;21.83;7.82;;;;;;;2.43;92.80;101117.16;5027730;28;20063;-84
2022/01/31 01:18:27;;;;;;;23.40;7.68;;;;;;;2.41;93.92;101111.91;5029426;28;20069;-85
2022/01/31 01:20:53;;;;;;;21.88;7.85;;;;;;;2.38;94.81;101092.69;5029569;28;20024;-85
2022/01/31 01:23:18;;;;;;;20.55;8.07;;;;;;;2.43;95.22;101093.50;5029533;28;20411;-86
2022/01/31 01:25:43;;;;;;;22.13;7.25;;;;;;;2.44;95.56;101106.63;5027685;28;20108;-87
2022/01/31 01:28:08;;;;;;;23.85;7.88;;;;;;;2.42;95.51;101095.25;5031722;28;20042;-88
2022/01/31 01:30:34;;;;;;;21.08;8.15;;;;;;;2.37;96.39;101067.31;5031265;28;20069;-87
2022/01/31 01:33:05;;;;;;;22.58;8.75;;;;;;;2.34;97.20;101065.59;5029643;28;20078;-88
2022/01/31 01:35:33;;;;;;;27.27;8.50;;;;;;;2.36;97.37;101040.16;5029086;28;20033;-88
2022/01/31 01:38:06;;;;;;;23.63;7.85;;;;;;;2.40;97.19;101041.00;5031348;28;20370;-89
2022/01/31 01:40:33;;;;;;;28.38;8.45;;;;;;;2.37;97.43;101026.13;5031842;28;20056;-87
2022/01/31 01:42:59;;;;;;;26.77;8.30;;;;;;;2.38;97.84;101027.91;5013500;28;20414;-88
2022/01/31 01:45:25;;;;;;;25.17;8.00;;;;;;;2.35;98.93;101017.44;5023704;28;20083;-87
2022/01/31 01:47:50;;;;;;;21.00;8.15;;;;;;;2.32;99.28;100996.44;5027070;28;20438;-87
2022/01/31 01:50:16;;;;;;;24.20;8.00;;;;;;;2.35;99.94;100999.03;5026216;28;20232;-86
2022/01/31 01:52:41;;;;;;;19.65;7.75;;;;;;;2.36;100.00;101006.03;5005771;28;20025;-87
2022/01/31 01:55:07;;;;;;;21.42;8.70;;;;;;;2.32;100.00;100987.72;5024707;28;20182;-86
2022/01/31 01:57:33;;;;;;;20.60;8.18;;;;;;;2.36;100.00;100979.75;5026651;28;20494;-86
2022/01/31 01:59:59;;;;;;;24.13;7.65;;;;;;;2.36;100.00;100966.63;5025515;28;20041;-83
2022/01/31 02:02:24;;;;;;;27.65;8.30;;;;;;;2.41;100.00;100961.28;5007818;28;20156;-83
2022/01/31 02:04:50;;;;;;;21.92;7.63;;;;;;;2.43;100.00;100951.66;5025026;28;20025;-84
2022/01/31 02:07:15;;;;;;;24.92;8.57;;;;;;;2.47;100.00;100935.81;5026733;28;20116;-83
2022/01/31 02:09:44;;;;;;;18.50;7.07;;;;;;;2.51;100.00;100926.13;5025578;28;20134;-83
2022/01/31 02:12:10;;;;;;;20.42;8.10;;;;;;;2.54;100.00;100912.91;5027861;28;20038;-83
2022/01/31 02:14:36;;;;;;;24.58;8.05;;;;;;;2.56;100.00;100912.91;5027037;28;20033;-84
2022/01/31 02:17:02;;;;;;;16.83;6.50;;;;;;;2.60;100.00;100893.56;5028325;28;20052;-84
2022/01/31 02:19:27;;;;;;;18.05;7.00;;;;;;;2.57;100.00;100891.84;5029396;28;20108;-83
2022/01/31 02:21:54;;;;;;;22.98;8.35;;;;;;;2.61;100.00;100876.91;5029114;28;20172;-83
2022/01/31 02:24:20;;;;;;;20.95;7.20;;;;;;;2.70;100.00;100879.34;5028985;28;20029;-84
2022/01/31 02:26:45;;;;;;;17.65;7.07;;;;;;;2.70;100.00;100866.22;5027695;28;20041;-83
2022/01/31 02:29:11;;;;;;;21.90;8.85;;;;;;;2.74;100.00;100863.50;5029100;28;20320;-84
2022/01/31 02:31:42;;;;;;;20.67;7.57;;;;;;;2.79;100.00;100866.03;5028891;28;20159;-84
2022/01/31 02:34:07;;;;;;;21.10;7.00;;;;;;;2.85;100.00;100867.72;5010438;28;20033;-84
2022/01/31 02:36:33;;;;;;;21.00;6.07;;;;;;;2.84;100.00;100861.56;5026371;28;20053;-85
2022/01/31 02:38:58;;;;;;;21.95;7.50;;;;;;;2.91;100.00;100870.22;5029179;28;20047;-84
2022/01/31 02:41:23;;;;;;;16.35;7.05;;;;;;;2.94;100.00;100863.13;5029097;28;20026;-84
2022/01/31 02:43:52;;;;;;;20.13;8.70;;;;;;;2.94;100.00;100851.75;5011272;28;20087;-84
2022/01/31 02:46:18;;;;;;;18.23;7.45;;;;;;;2.93;100.00;100857.91;5026965;28;20028;-85
2022/01/31 02:48:43;;;;;;;16.48;7.43;;;;;;;2.94;100.00;100863.13;5028761;28;20034;-86
2022/01/31 02:51:10;;;;;;;17.27;7.65;;;;;;;2.95;100.00;100854.34;5029415;28;20033;-85
2022/01/31 02:53:41;;;;;;;19.50;7.85;;;;;;;2.98;100.00;100835.03;5028492;28;20096;-86
2022/01/31 02:56:07;;;;;;;16.23;8.00;;;;;;;3.03;100.00;100825.28;5026120;28;20159;-85
2022/01/31 02:58:33;;;;;;;16.48;7.65;;;;;;;3.07;100.00;100826.09;5028379;28;20026;-85
2022/01/31 03:00:58;;;;;;;15.57;7.07;;;;;;;3.08;100.00;100819.91;5028648;28;20032;-85
2022/01/31 03:03:25;;;;;;;16.25;7.45;;;;;;;3.00;100.00;100805.16;5028698;28;20043;-84
2022/01/31 03:05:50;;;;;;;19.13;8.27;;;;;;;3.15;100.00;100818.91;5026256;28;20021;-85
2022/01/31 03:08:15;;;;;;;21.10;7.55;;;;;;;3.17;100.00;100817.09;5028812;28;20395;-83
2022/01/31 03:10:41;;;;;;;18.05;8.90;;;;;;;3.22;100.00;100804.72;5028793;28;20049;-84
2022/01/31 03:13:06;;;;;;;14.57;8.13;;;;;;;3.21;100.00;100802.97;5028313;28;20471;-83
2022/01/31 03:15:32;;;;;;;12.82;7.97;;;;;;;3.30;100.00;100802.78;5025713;28;20277;-84
2022/01/31 03:17:58;;;;;;;19.52;9.02;;;;;;;3.36;100.00;100814.94;5028749;28;20049;-84
2022/01/31 03:20:24;;;;;;;14.30;8.07;;;;;;;3.45;100.00;100802.44;5028323;28;20017;-84
2022/01/31 03:22:50;;;;;;;16.48;8.27;;;;;;;3.53;100.00;100818.06;5028020;28;20083;-84
2022/01/31 03:25:17;;;;;;;20.30;9.27;;;;;;;3.57;100.00;100810.97;5024948;28;20105;-86
2022/01/31 03:27:44;;;;;;;19.65;9.27;;;;;;;3.63;100.00;100826.63;5027568;28;20548;-84
2022/01/31 03:30:14;;;;;;;16.88;8.60;;;;;;;3.63;100.00;100805.56;5028112;28;20079;-84
2022/01/31 03:32:40;;;;;;;24.45;9.77;;;;;;;3.54;100.00;100779.47;5027773;28;20036;-85
2022/01/31 03:35:07;;;;;;;19.88;8.88;;;;;;;3.59;100.00;100794.22;5008304;28;20037;-85
2022/01/31 03:37:32;;;;;;;21.45;8.48;;;;;;;3.65;100.00;100780.09;5027560;28;20055;-85
2022/01/31 03:39:58;;;;;;;19.88;7.55;;;;;;;3.59;100.00;100765.28;5027273;28;20108;-85
2022/01/31 03:42:23;;;;;;;21.10;8.82;;;;;;;3.60;100.00;100776.72;5027413;28;20108;-85
2022/01/31 03:44:48;;;;;;;19.50;8.15;;;;;;;3.54;100.00;100776.81;5028275;28;20026;-85
2022/01/31 03:47:15;;;;;;;21.65;7.97;;;;;;;3.57;100.00;100774.13;5008428;28;20069;-85
2022/01/31 03:49:41;;;;;;;25.45;8.20;;;;;;;3.58;100.00;100770.59;5028112;28;20523;-86
2022/01/31 03:52:06;;;;;;;20.05;8.15;;;;;;;3.52;100.00;100754.97;5027944;28;20117;-86
2022/01/31 03:54:32;;;;;;;20.27;8.10;;;;;;;3.58;100.00;100762.69;5027642;28;20057;-85
2022/01/31 03:56:57;;;;;;;20.38;7.28;;;;;;;3.49;100.00;100746.22;5025172;28;20033;-86
2022/01/31 03:59:22;;;;;;;19.50;6.78;;;;;;;3.62;100.00;100756.47;5028316;28;20061;-85
2022/01/31 04:01:47;;;;;;;18.58;6.15;;;;;;;3.67;100.00;100768.59;5027284;28;20034;-85
2022/01/31 04:04:13;;;;;;;17.30;6.25;;;;;;;3.71;100.00;100770.25;5028303;28;20087;-85
2022/01/31 04:06:40;;;;;;;20.98;6.32;;;;;;;3.73;100.00;100771.09;5025050;28;20033;-85
2022/01/31 04:09:06;;;;;;;18.60;6.05;;;;;;;3.72;100.00;100768.50;5027976;28;20032;-85
2022/01/31 04:11:31;;;;;;;19.48;6.07;;;;;;;3.70;100.00;100773.81;5026689;28;20028;-85
2022/01/31 04:13:57;;;;;;;19.20;4.95;;;;;;;3.75;100.00;100771.91;5027939;28;20017;-85
2022/01/31 04:16:22;;;;;;;13.00;5.10;;;;;;;3.75;100.00;100758.75;5026164;28;20029;-86
2022/01/31 04:18:47;;;;;;;18.90;5.75;;;;;;;3.77;100.00;100758.75;5028079;28;20509;-86
2022/01/31 04:21:14;;;;;;;20.00;4.53;;;;;;;3.78;100.00;100763.09;5010423;28;20112;-85
2022/01/31 04:23:39;;;;;;;24.88;5.65;;;;;;;3.78;100.00;100756.97;5028053;28;20548;-85
2022/01/31 04:26:11;;;;;;;16.15;4.38;;;;;;;3.74;100.00;100757.03;5024622;28;20113;-85
2022/01/31 04:33:40;;;;;;;16.58;3.67;;;;;;;3.68;100.00;100753.69;5029629;28;20041;-84
2022/01/31 04:36:06;;;;;;;13.38;3.45;;;;;;;3.69;100.00;100750.16;5029224;28;20033;-85
2022/01/31 04:38:32;;;;;;;19.70;4.47;;;;;;;3.65;100.00;100735.34;5031993;28;20434;-85
2022/01/31 04:40:57;;;;;;;16.88;4.03;;;;;;;3.70;100.00;100736.94;5030730;28;20391;-85
2022/01/31 04:43:22;;;;;;;17.00;3.60;;;;;;;3.73;100.00;100738.66;5031135;28;20057;-85
2022/01/31 04:45:49;;;;;;;16.20;3.75;;;;;;;3.68;100.00;100736.13;5029602;28;20029;-85
2022/01/31 04:48:15;;;;;;;17.05;4.30;;;;;;;3.78;100.00;100746.44;5031523;28;20025;-85
2022/01/31 04:50:42;;;;;;;13.27;3.05;;;;;;;3.78;100.00;100734.13;5031865;28;20114;-85
2022/01/31 04:53:07;;;;;;;19.50;4.30;;;;;;;3.78;99.93;100742.03;5030982;28;20049;-85
2022/01/31 04:55:32;;;;;;;13.93;4.70;;;;;;;3.73;100.00;100734.25;5027778;28;20077;-85
2022/01/31 04:57:58;;;;;;;13.98;3.53;;;;;;;3.72;100.00;100739.53;5030894;28;20029;-85
2022/01/31 05:00:24;;;;;;;26.02;4.35;;;;;;;3.76;100.00;100754.34;5030896;28;20033;-85
2022/01/31 05:02:49;;;;;;;14.13;3.53;;;;;;;3.70;100.00;100744.84;5031631;28;20029;-86
2022/01/31 05:05:15;;;;;;;17.50;3.58;;;;;;;3.66;100.00;100737.94;5029019;28;20029;-85
2022/01/31 05:07:40;;;;;;;12.35;2.75;;;;;;;3.66;99.13;100744.97;5030497;28;20345;-85
2022/01/31 05:10:06;;;;;;;17.73;3.47;;;;;;;3.64;99.18;100749.41;5029811;28;20037;-85
2022/01/31 05:12:31;;;;;;;16.40;3.15;;;;;;;3.68;98.82;100737.91;5030335;28;20121;-86
2022/01/31 05:14:56;;;;;;;14.90;3.75;;;;;;;3.69;98.39;100742.25;5029651;28;20029;-86
2022/01/31 05:17:22;;;;;;;16.55;3.22;;;;;;;3.68;98.00;100730.88;5030309;28;20021;-86
2022/01/31 05:19:47;;;;;;;14.95;3.83;;;;;;;3.69;97.04;100710.69;5012961;28;20033;-87
2022/01/31 05:22:12;;;;;;;14.35;3.08;;;;;;;3.68;96.55;100701.91;5030595;28;20027;-87
2022/01/31 05:24:37;;;;;;;16.92;3.53;;;;;;;3.75;96.14;100710.50;5031220;28;20430;-86
2022/01/31 05:27:03;;;;;;;8.32;2.60;;;;;;;3.79;95.43;100706.03;5028399;28;20059;-86
2022/01/31 05:29:28;;;;;;;17.88;3.13;;;;;;;3.80;95.57;100719.16;5031450;28;20418;-86
2022/01/31 05:31:53;;;;;;;15.82;2.75;;;;;;;3.82;94.99;100712.09;5031495;28;20030;-86
2022/01/31 05:34:20;;;;;;;13.57;3.03;;;;;;;3.83;93.50;100689.25;5030524;28;20025;-86
2022/01/31 05:36:46;;;;;;;14.38;3.83;;;;;;;3.85;93.27;100690.97;5028793;28;20037;-87
2022/01/31 05:39:11;;;;;;;16.90;2.88;;;;;;;3.90;93.23;100693.47;5030828;28;20103;-86
2022/01/31 05:41:36;;;;;;;18.42;4.15;;;;;;;3.81;93.50;100681.41;5031468;28;20030;-86
2022/01/31 05:44:02;;;;;;;15.25;3.40;;;;;;;3.89;93.40;100694.38;5031208;28;20017;-86
2022/01/31 05:46:27;;;;;;;17.20;3.40;;;;;;;3.79;95.28;100685.84;5027513;28;20017;-87
2022/01/31 05:48:53;;;;;;;15.05;2.90;;;;;;;3.78;95.11;100678.84;5030881;28;20025;-86
2022/01/31 05:51:21;;;;;;;16.85;3.40;;;;;;;3.67;95.77;100679.09;5031944;28;20022;-87
2022/01/31 05:53:49;;;;;;;11.85;3.13;;;;;;;3.56;96.56;100673.28;5030639;28;20551;-86
2022/01/31 05:56:15;;;;;;;12.80;3.42;;;;;;;3.59;96.36;100672.31;5028416;28;20030;-87
2022/01/31 05:58:41;;;;;;;21.23;3.97;;;;;;;3.54;97.40;100656.63;5030007;28;20027;-85
2022/01/31 06:01:06;;;;;;;12.45;2.95;;;;;;;3.48;98.07;100669.97;5030400;28;20489;-86
2022/01/31 06:03:32;;;;;;;15.35;3.10;;;;;;;3.47;97.91;100665.59;5030514;28;20049;-86
2022/01/31 06:05:57;;;;;;;16.20;3.15;;;;;;;3.42;97.90;100649.91;5027176;28;20115;-87
2022/01/31 06:08:22;;;;;;;14.90;3.20;;;;;;;3.40;99.07;100667.50;5029404;28;20075;-88
2022/01/31 06:10:49;;;;;;;18.63;3.58;;;;;;;3.29;99.32;100672.16;5009095;28;20032;-87
2022/01/31 06:13:16;;;;;;;17.38;3.35;;;;;;;3.35;99.63;100697.47;5029955;28;20483;-86
2022/01/31 06:15:42;;;;;;;18.52;3.30;;;;;;;3.33;100.00;100709.78;5028253;28;20138;-88
2022/01/31 06:18:07;;;;;;;23.67;6.22;;;;;;;3.25;99.48;100695.03;5029924;28;20057;-88
2022/01/31 06:20:32;;;;;;;15.82;4.70;;;;;;;3.26;100.00;100709.06;5029420;28;20274;-87
2022/01/31 06:22:58;;;;;;;20.83;3.85;;;;;;;3.18;100.00;100704.00;5029650;28;20029;-87
2022/01/31 06:25:23;;;;;;;34.30;13.52;;;;;;;3.16;100.00;100723.31;5026712;28;20268;-87
2022/01/31 06:27:50;;;;;;;18.13;4.50;;;;;;;3.13;100.00;100724.25;5027034;28;20269;-88
2022/01/31 06:30:15;;;;;;;17.65;4.57;;;;;;;3.14;100.00;100718.09;5028811;28;20099;-88
2022/01/31 06:32:41;;;;;;;21.45;3.97;;;;;;;3.08;100.00;100702.44;5025971;28;20419;-89
2022/01/31 06:35:07;;;;;;;15.30;3.83;;;;;;;3.03;100.00;100687.69;5028935;28;20449;-86
2022/01/31 06:37:33;;;;;;;19.23;3.42;;;;;;;3.15;100.00;100703.19;5028572;28;20459;-85
2022/01/31 06:39:58;;;;;;;17.05;3.47;;;;;;;3.16;100.00;100699.66;5028731;28;20386;-86
2022/01/31 06:42:24;;;;;;;16.88;4.57;;;;;;;3.16;100.00;100713.66;5008484;28;20027;-84
2022/01/31 06:44:49;;;;;;;20.48;4.18;;;;;;;2.98;100.00;100693.91;5029433;28;20029;-84
2022/01/31 06:47:15;;;;;;;15.13;3.72;;;;;;;3.06;100.00;100701.63;5029195;28;20084;-85
2022/01/31 06:49:40;;;;;;;15.27;4.03;;;;;;;3.08;100.00;100712.09;5028163;28;20100;-83
2022/01/31 06:52:05;;;;;;;12.07;3.35;;;;;;;3.08;100.00;100704.22;5025611;28;20036;-87
2022/01/31 06:54:31;;;;;;;19.27;4.13;;;;;;;3.00;100.00;100696.50;5023812;28;20069;-87
2022/01/31 06:56:57;;;;;;;23.67;4.40;;;;;;;2.94;100.00;100700.13;5019126;28;20076;-87
2022/01/31 06:59:23;;;;;;;16.67;4.00;;;;;;;2.95;100.00;100693.97;5028390;28;20029;-86
2022/01/31 07:01:48;;;;;;;15.27;3.40;;;;;;;2.96;100.00;100690.44;5026078;28;20495;-87
2022/01/31 07:04:14;;;;;;;17.88;3.47;;;;;;;2.93;100.00;100708.91;5028323;28;20022;-86
2022/01/31 07:06:39;;;;;;;14.15;4.03;;;;;;;2.93;100.00;100721.22;5027590;28;20402;-85
2022/01/31 07:09:04;;;;;;;27.35;3.75;;;;;;;2.92;100.00;100717.69;5027728;28;20463;-86
2022/01/31 07:11:34;;;;;;;21.00;3.70;;;;;;;2.90;100.00;100719.50;5024925;28;20073;-86
2022/01/31 07:14:03;;;;;;;24.63;4.28;;;;;;;2.90;100.00;100724.75;5027982;28;20390;-87
2022/01/31 07:16:28;;;;;;;16.52;4.07;;;;;;;2.89;100.00;100717.78;5027973;28;20047;-87
2022/01/31 07:19:01;;;;;;;16.60;3.67;;;;;;;2.86;100.00;100712.56;5009635;28;20029;-87
2022/01/31 07:21:34;;;;;;;17.60;3.92;;;;;;;2.84;100.00;100708.22;5027414;28;20022;-87
2022/01/31 07:24:18;;;;;;;21.10;4.07;;;;;;;2.83;100.00;100706.50;5027227;28;20036;-87
2022/01/31 07:26:46;;;;;;;18.20;3.55;;;;;;;2.80;100.00;100703.94;5027582;28;20140;-87
2022/01/31 07:29:12;;;;;;;16.35;4.07;;;;;;;2.85;100.00;100692.44;5027945;28;20578;-85
2022/01/31 07:31:38;;;;;;;21.65;4.93;;;;;;;2.85;100.00;100704.72;5024785;28;20116;-86
2022/01/31 07:34:04;;;;;;;23.75;4.03;;;;;;;2.80;100.00;100686.44;5027584;28;20430;-87
2022/01/31 07:36:29;;;;;;;20.85;3.70;;;;;;;2.86;100.00;100670.50;5027349;28;20029;-85
2022/01/31 07:38:55;;;;;;;17.45;4.22;;;;;;;2.77;100.00;100662.84;5028130;28;20022;-86
2022/01/31 07:41:20;;;;;;;18.60;3.67;;;;;;;2.78;100.00;100669.81;5025557;28;20028;-85
2022/01/31 07:43:45;;;;;;;24.15;4.22;;;;;;;2.87;100.00;100695.88;5029707;28;20080;-85
2022/01/31 07:46:13;;;;;;;14.35;3.97;;;;;;;2.88;100.00;100716.00;5010763;28;20026;-85
2022/01/31 07:48:38;;;;;;;18.48;4.18;;;;;;;2.85;100.00;100708.22;5009717;28;20041;-85
2022/01/31 07:51:03;;;;;;;17.42;4.40;;;;;;;2.82;100.00;100724.03;5025882;28;20399;-83
2022/01/31 07:53:29;;;;;;;19.77;4.20;;;;;;;2.83;100.00;100707.38;5030700;28;20044;-83
2022/01/31 07:55:54;;;;;;;17.33;4.07;;;;;;;2.89;100.00;100746.69;5009879;28;20122;-83
2022/01/31 07:58:20;;;;;;;21.45;4.53;;;;;;;2.82;100.00;100716.16;5022271;28;20029;-83
2022/01/31 08:00:45;;;;;;;23.80;5.43;;;;;;;2.90;100.00;100734.41;5024169;28;20043;-82
2022/01/31 08:03:11;;;;;;;25.35;4.95;;;;;;;2.92;100.00;100732.59;5024039;28;20115;-83
2022/01/31 08:05:36;;;;;;;25.83;5.43;;;;;;;2.86;100.00;100728.34;5027542;28;20029;-83
2022/01/31 08:08:02;;;;;;;22.40;4.55;;;;;;;2.84;100.00;100711.72;5027877;28;20671;-85
2022/01/31 08:10:27;;;;;;;21.70;5.45;;;;;;;2.87;100.00;100729.19;5029624;28;20037;-84
2022/01/31 08:12:54;;;;;;;25.98;6.32;;;;;;;2.83;100.00;100724.91;5031309;28;20394;-84
2022/01/31 08:15:25;;;;;;;22.88;4.90;;;;;;;2.88;100.00;100726.53;5027744;28;20535;-83
2022/01/31 08:17:50;;;;;;;20.17;5.72;;;;;;;2.91;100.00;100742.25;5012144;28;20025;-82
2022/01/31 08:20:15;;;;;;;25.77;5.05;;;;;;;2.91;100.00;100731.72;5015157;28;20419;-82
2022/01/31 08:22:41;;;;;;;23.73;4.10;;;;;;;2.89;100.00;100712.50;5031722;28;20057;-81
2022/01/31 08:25:13;;;;;;;25.08;4.80;;;;;;;2.93;100.00;100724.69;5031125;28;20040;-81
2022/01/31 08:27:40;;;;;;;23.48;5.18;;;;;;;2.93;100.00;100718.56;5031654;28;20057;-82
2022/01/31 08:30:11;;;;;;;20.65;4.25;;;;;;;2.96;100.00;100732.50;5027377;28;20486;-82
2022/01/31 08:32:44;;;;;;;29.52;4.60;;;;;;;2.89;100.00;100730.06;5029640;28;20033;-82
2022/01/31 08:37:54;;;;;;;23.80;4.90;;;;;;;2.88;100.00;100730.94;5031116;28;20403;-83
2022/01/31 08:40:20;;;;;;;26.67;4.53;;;;;;;2.89;100.00;100722.16;5029905;28;20022;-84
2022/01/31 08:42:45;;;;;;;26.90;5.65;;;;;;;2.89;100.00;100728.28;5030549;28;20037;-82
2022/01/31 08:45:11;;;;;;;29.67;5.18;;;;;;;2.92;100.00;100738.72;5028817;28;20033;-83
2022/01/31 08:47:40;;;;;;;19.58;4.47;;;;;;;2.90;100.00;100743.16;5030915;28;20075;-83
2022/01/31 08:50:05;;;;;;;28.33;4.65;;;;;;;2.97;100.00;100742.13;5031160;28;20025;-82
2022/01/31 08:52:31;;;;;;;24.20;5.35;;;;;;;2.96;100.00;100735.13;5030228;28;20092;-82
2022/01/31 08:54:56;;;;;;;37.92;5.78;;;;;;;3.02;100.00;100741.19;5028603;28;20057;-82
2022/01/31 08:57:21;;;;;;;20.48;4.60;;;;;;;2.98;100.00;100721.97;5030955;28;20034;-83
2022/01/31 08:59:51;;;;;;;26.52;4.75;;;;;;;3.00;100.00;100731.53;5031802;28;20025;-82
2022/01/31 09:02:18;;;;;;;25.80;4.47;;;;;;;2.98;100.00;100733.34;5011968;28;20032;-82
2022/01/31 09:04:49;;;;;;;25.30;5.63;;;;;;;2.95;100.00;100727.28;5029538;28;20026;-84
2022/01/31 09:07:16;;;;;;;26.77;4.68;;;;;;;3.01;100.00;100748.19;5029753;28;20034;-83
2022/01/31 09:09:42;;;;;;;24.85;4.95;;;;;;;2.99;100.00;100750.84;5026657;28;20029;-83
2022/01/31 09:12:09;;;;;;;29.08;5.85;;;;;;;2.97;100.00;100762.31;5030150;28;20084;-83
2022/01/31 09:14:35;;;;;;;22.95;4.63;;;;;;;3.03;100.00;100756.03;5028734;28;20112;-82
2022/01/31 09:17:01;;;;;;;34.17;5.13;;;;;;;2.98;100.00;100770.16;5030817;28;20061;-84
2022/01/31 09:19:26;;;;;;;29.83;5.30;;;;;;;3.04;100.00;100774.41;5030636;28;20116;-83
2022/01/31 09:21:53;;;;;;;29.50;5.30;;;;;;;2.96;100.00;100764.03;5028485;28;20529;-84
2022/01/31 09:24:18;;;;;;;24.13;4.82;;;;;;;3.05;100.00;100759.50;5029468;28;20033;-83
2022/01/31 09:26:43;;;;;;;21.25;5.05;;;;;;;3.03;100.00;100761.31;5030641;28;20383;-83
2022/01/31 09:29:09;;;;;;;21.75;4.70;;;;;;;3.09;100.00;100763.78;5030083;28;20030;-83
2022/01/31 09:31:35;;;;;;;23.80;5.45;;;;;;;3.12;100.00;100745.31;5009323;28;20503;-83
2022/01/31 09:34:00;;;;;;;21.83;4.30;;;;;;;3.08;100.00;100759.44;5030712;28;20087;-83
2022/01/31 09:36:27;;;;;;;27.10;3.95;;;;;;;3.09;100.00;100755.91;5030433;28;20033;-82
2022/01/31 09:38:53;;;;;;;29.40;4.78;;;;;;;3.12;100.00;100758.47;5030646;28;20083;-83
2022/01/31 09:41:22;;;;;;;29.02;5.35;;;;;;;3.16;100.00;100757.50;5027151;28;20437;-82
2022/01/31 09:44:05;;;;;;;28.55;4.78;;;;;;;3.12;100.00;100776.88;5030177;28;20140;-82
2022/01/31 09:46:45;;;;;;;25.08;4.57;;;;;;;3.09;100.00;100774.31;5013136;28;20055;-83
2022/01/31 09:49:11;;;;;;;21.25;4.55;;;;;;;3.15;100.00;100761.91;5030259;28;20324;-82
2022/01/31 09:51:36;;;;;;;29.73;4.95;;;;;;;3.19;100.00;100778.50;5027055;28;20129;-82
2022/01/31 09:54:03;;;;;;;37.55;5.88;;;;;;;3.14;100.00;100793.50;5030275;28;20052;-83
2022/01/31 09:56:33;;;;;;;23.80;3.90;;;;;;;3.14;100.00;100793.50;5029523;28;20096;-83
2022/01/31 09:59:00;;;;;;;29.25;5.30;;;;;;;3.09;100.00;100797.97;5029696;28;20494;-83
2022/01/31 10:01:39;;;;;;;18.67;3.83;;;;;;;3.14;100.00;100812.78;5027240;28;20540;-82
2022/01/31 10:04:09;;;;;;;27.85;5.15;;;;;;;3.12;100.00;100805.81;5030174;28;20490;-82
2022/01/31 10:06:39;;;;;;;27.83;6.07;;;;;;;3.03;100.00;100829.66;5026478;28;20471;-82
2022/01/31 10:09:15;;;;;;;24.80;5.28;;;;;;;3.00;100.00;100838.47;5029631;28;20113;-82
2022/01/31 10:11:50;;;;;;;23.55;4.60;;;;;;;3.00;100.00;100820.94;5028086;28;20903;-83
2022/01/31 10:17:33;;;;;;;29.52;6.10;;;;;;;2.98;100.00;100835.88;4968290;28;20034;-82
2022/01/31 10:20:01;;;;;;;30.15;5.68;;;;;;;3.06;100.00;100845.41;4966829;28;20033;-82
2022/01/31 10:22:31;;;;;;;39.92;6.38;;;;;;;3.06;100.00;100817.31;4968260;28;20580;-83
2022/01/31 10:24:59;;;;;;;31.48;5.72;;;;;;;3.10;100.00;100847.94;4975689;28;20034;-82
2022/01/31 10:27:31;;;;;;;34.67;6.20;;;;;;;3.12;100.00;100840.00;4968430;28;20495;-83
2022/01/31 10:30:10;;;;;;;42.63;6.57;;;;;;;3.16;100.00;100860.06;4973828;28;20038;-82
2022/01/31 10:32:37;;;;;;;29.10;6.82;;;;;;;3.17;100.00;100867.06;4955701;28;20038;-84
2022/01/31 10:35:12;;;;;;;46.83;6.55;;;;;;;3.15;100.00;100882.03;4968242;28;20609;-84
2022/01/31 10:37:40;;;;;;;45.33;7.43;;;;;;;3.15;100.00;100871.50;4968160;28;20531;-84
2022/01/31 10:53:38;;;;;;;36.33;5.72;;;;;;;3.02;100.00;100870.03;4989084;28;20037;-83
2022/01/31 10:56:03;;;;;;;34.45;6.82;;;;;;;3.06;100.00;100879.59;5027608;28;20515;-82
2022/01/31 10:58:30;;;;;;;34.03;6.95;;;;;;;3.05;100.00;100860.28;5029150;28;20064;-83
2022/01/31 11:01:11;;;;;;;33.78;6.28;;;;;;;3.16;100.00;100904.78;5025674;28;20025;-83
2022/01/31 11:03:37;;;;;;;44.88;7.32;;;;;;;3.06;100.00;100904.09;5030724;28;20021;-83
2022/01/31 11:06:08;;;;;;;38.05;6.03;;;;;;;2.98;100.00;100895.50;5029969;28;20399;-83
2022/01/31 11:08:33;;;;;;;29.40;5.80;;;;;;;3.00;100.00;100910.31;5030037;28;20024;-82
2022/01/31 11:10:59;;;;;;;34.10;6.97;;;;;;;2.98;100.00;100913.91;5025197;28;20030;-83
2022/01/31 11:13:25;;;;;;;26.58;5.68;;;;;;;3.00;100.00;100888.44;5029822;28;20030;-82
2022/01/31 11:15:53;;;;;;;35.10;6.22;;;;;;;2.94;100.00;100904.34;5029290;28;20026;-82
2022/01/31 11:18:20;;;;;;;30.10;5.75;;;;;;;3.02;100.00;100904.19;5029924;28;20157;-82
2022/01/31 11:20:48;;;;;;;37.95;6.22;;;;;;;3.01;100.00;100924.38;5025641;28;20029;-82
2022/01/31 11:23:16;;;;;;;33.25;6.28;;;;;;;3.09;100.00;100921.56;5028746;28;20139;-82
2022/01/31 11:25:43;;;;;;;43.65;7.45;;;;;;;3.12;100.00;100924.16;5028575;28;20800;-83
2022/01/31 11:28:13;;;;;;;39.58;6.57;;;;;;;3.11;100.00;100930.31;5028663;28;20045;-83
2022/01/31 11:30:41;;;;;;;41.17;7.20;;;;;;;3.09;100.00;100930.31;5026648;28;20181;-83
2022/01/31 11:33:07;;;;;;;41.20;6.88;;;;;;;3.10;100.00;100945.22;5028722;28;20029;-83
2022/01/31 11:35:32;;;;;;;41.08;7.38;;;;;;;3.08;100.00;100914.59;5027804;28;20034;-83
2022/01/31 11:37:58;;;;;;;41.15;6.88;;;;;;;3.15;100.00;100932.00;5028815;28;20275;-83
2022/01/31 11:40:24;;;;;;;39.33;7.30;;;;;;;3.20;100.00;100927.50;5023741;28;20446;-81
2022/01/31 11:42:51;;;;;;;31.73;6.82;;;;;;;3.23;100.00;100945.88;5028634;28;20025;-83